Terminal Aerodrome Forecast
Issued by NWS

Home | Current Version | Previous Version | Text Only | Print | Product List | Glossary On
Versions: 1 2 3 4 5 6 7 8 9 10 11 12 13 14 15 16 17 18 19 20 21 22 23 24 25 26 27 28 29 30 31 32 33 34
000
FTUS42 KJAX 292349
TAFVQQ
TAF
KVQQ 292349Z 3000/3024 26004KT P6SM SCT030 SCT150 BKN250
     FM300400 00000KT P6SM SCT250
      TEMPO 3006/3010 5SM BR
     FM301400 27007KT P6SM SCT025 SCT250
     FM301800 24010KT P6SM VCTS SCT045CB BKN150 BKN250=

USA.gov is the U.S. government's official web portal to all federal, state and local government web resources and services.